sensor_id;sensor_type;location;lat;lon;timestamp;P1;durP1;ratioP1;P2;durP2;ratioP2
14001;SDS011;7076;51.280;12.584;2023-02-03T00:02:06;2.10;;;0.80;;
14001;SDS011;7076;51.280;12.584;2023-02-03T00:07:11;3.17;;;0.70;;
14001;SDS011;7076;51.280;12.584;2023-02-03T00:12:15;0.80;;;0.60;;
14001;SDS011;7076;51.280;12.584;2023-02-03T00:17:17;0.70;;;0.50;;
14001;SDS011;7076;51.280;12.584;2023-02-03T00:22:22;2.83;;;0.70;;
14001;SDS011;7076;51.280;12.584;2023-02-03T00:27:24;2.67;;;0.60;;
14001;SDS011;7076;51.280;12.584;2023-02-03T00:32:27;0.40;;;0.40;;
14001;SDS011;7076;51.280;12.584;2023-02-03T00:37:32;2.73;;;0.60;;
14001;SDS011;7076;51.280;12.584;2023-02-03T00:42:35;2.07;;;0.57;;
14001;SDS011;7076;51.280;12.584;2023-02-03T00:47:38;0.97;;;0.53;;
14001;SDS011;7076;51.280;12.584;2023-02-03T00:52:42;0.77;;;0.47;;
14001;SDS011;7076;51.280;12.584;2023-02-03T00:57:45;0.80;;;0.30;;
14001;SDS011;7076;51.280;12.584;2023-02-03T01:02:48;1.37;;;0.50;;
14001;SDS011;7076;51.280;12.584;2023-02-03T01:07:52;2.47;;;0.50;;
14001;SDS011;7076;51.280;12.584;2023-02-03T01:12:55;0.70;;;0.50;;
14001;SDS011;7076;51.280;12.584;2023-02-03T01:18:01;0.73;;;0.60;;
14001;SDS011;7076;51.280;12.584;2023-02-03T01:23:05;1.40;;;0.87;;
14001;SDS011;7076;51.280;12.584;2023-02-03T01:28:08;2.20;;;0.60;;
14001;SDS011;7076;51.280;12.584;2023-02-03T01:33:11;2.93;;;0.90;;
14001;SDS011;7076;51.280;12.584;2023-02-03T01:38:15;2.13;;;1.00;;
14001;SDS011;7076;51.280;12.584;2023-02-03T01:43:31;0.80;;;0.63;;
14001;SDS011;7076;51.280;12.584;2023-02-03T01:48:34;1.43;;;1.10;;
14001;SDS011;7076;51.280;12.584;2023-02-03T01:53:38;1.20;;;0.90;;
14001;SDS011;7076;51.280;12.584;2023-02-03T01:58:41;1.67;;;0.90;;
14001;SDS011;7076;51.280;12.584;2023-02-03T02:03:47;1.70;;;1.07;;
14001;SDS011;7076;51.280;12.584;2023-02-03T02:08:54;1.10;;;0.90;;
14001;SDS011;7076;51.280;12.584;2023-02-03T02:13:59;1.40;;;1.20;;
14001;SDS011;7076;51.280;12.584;2023-02-03T02:19:13;2.10;;;1.23;;
14001;SDS011;7076;51.280;12.584;2023-02-03T02:24:37;1.47;;;1.30;;
14001;SDS011;7076;51.280;12.584;2023-02-03T02:35:22;1.53;;;1.43;;
14001;SDS011;7076;51.280;12.584;2023-02-03T02:40:35;2.30;;;1.70;;
14001;SDS011;7076;51.280;12.584;2023-02-03T02:45:43;4.17;;;1.90;;
14001;SDS011;7076;51.280;12.584;2023-02-03T02:50:50;2.70;;;1.93;;
14001;SDS011;7076;51.280;12.584;2023-02-03T02:55:55;2.90;;;2.47;;
14001;SDS011;7076;51.280;12.584;2023-02-03T03:00:58;3.40;;;2.33;;
14001;SDS011;7076;51.280;12.584;2023-02-03T03:06:03;4.23;;;2.87;;
14001;SDS011;7076;51.280;12.584;2023-02-03T03:11:12;3.93;;;3.07;;
14001;SDS011;7076;51.280;12.584;2023-02-03T03:16:14;4.07;;;3.27;;
14001;SDS011;7076;51.280;12.584;2023-02-03T03:21:21;4.00;;;3.33;;
14001;SDS011;7076;51.280;12.584;2023-02-03T03:26:27;5.03;;;3.63;;
14001;SDS011;7076;51.280;12.584;2023-02-03T03:31:34;4.70;;;3.80;;
14001;SDS011;7076;51.280;12.584;2023-02-03T03:36:39;5.40;;;4.03;;
14001;SDS011;7076;51.280;12.584;2023-02-03T03:41:47;5.03;;;3.53;;
14001;SDS011;7076;51.280;12.584;2023-02-03T03:46:58;7.10;;;4.30;;
14001;SDS011;7076;51.280;12.584;2023-02-03T03:52:06;6.10;;;4.30;;
14001;SDS011;7076;51.280;12.584;2023-02-03T03:57:11;5.50;;;4.00;;
14001;SDS011;7076;51.280;12.584;2023-02-03T04:02:16;5.27;;;3.93;;
14001;SDS011;7076;51.280;12.584;2023-02-03T04:07:22;4.73;;;3.87;;
14001;SDS011;7076;51.280;12.584;2023-02-03T04:12:27;5.63;;;4.60;;
14001;SDS011;7076;51.280;12.584;2023-02-03T04:17:30;6.80;;;4.97;;
14001;SDS011;7076;51.280;12.584;2023-02-03T04:22:35;7.73;;;5.57;;
14001;SDS011;7076;51.280;12.584;2023-02-03T04:27:38;9.27;;;6.30;;
14001;SDS011;7076;51.280;12.584;2023-02-03T04:32:41;7.90;;;6.10;;
14001;SDS011;7076;51.280;12.584;2023-02-03T04:37:45;7.63;;;5.73;;
14001;SDS011;7076;51.280;12.584;2023-02-03T04:42:48;8.77;;;7.17;;
14001;SDS011;7076;51.280;12.584;2023-02-03T04:47:51;8.93;;;5.63;;
14001;SDS011;7076;51.280;12.584;2023-02-03T04:52:56;7.37;;;5.87;;
14001;SDS011;7076;51.280;12.584;2023-02-03T04:58:00;10.13;;;6.33;;
14001;SDS011;7076;51.280;12.584;2023-02-03T05:03:03;9.67;;;7.13;;
14001;SDS011;7076;51.280;12.584;2023-02-03T05:08:07;8.50;;;6.33;;
14001;SDS011;7076;51.280;12.584;2023-02-03T05:13:10;8.10;;;6.00;;
14001;SDS011;7076;51.280;12.584;2023-02-03T05:18:13;7.40;;;6.37;;
14001;SDS011;7076;51.280;12.584;2023-02-03T05:23:17;9.50;;;6.07;;
14001;SDS011;7076;51.280;12.584;2023-02-03T05:28:20;6.93;;;5.53;;
14001;SDS011;7076;51.280;12.584;2023-02-03T05:33:23;6.83;;;5.47;;
14001;SDS011;7076;51.280;12.584;2023-02-03T05:38:27;6.73;;;5.77;;
14001;SDS011;7076;51.280;12.584;2023-02-03T05:43:30;8.93;;;5.40;;
14001;SDS011;7076;51.280;12.584;2023-02-03T05:48:32;5.37;;;4.57;;
14001;SDS011;7076;51.280;12.584;2023-02-03T05:53:37;4.73;;;3.73;;
14001;SDS011;7076;51.280;12.584;2023-02-03T05:58:39;3.90;;;3.43;;
14001;SDS011;7076;51.280;12.584;2023-02-03T06:03:42;9.30;;;5.20;;
14001;SDS011;7076;51.280;12.584;2023-02-03T06:08:48;4.93;;;3.97;;
14001;SDS011;7076;51.280;12.584;2023-02-03T06:13:52;5.43;;;4.77;;
14001;SDS011;7076;51.280;12.584;2023-02-03T06:18:55;7.33;;;5.07;;
14001;SDS011;7076;51.280;12.584;2023-02-03T06:24:01;6.37;;;4.70;;
14001;SDS011;7076;51.280;12.584;2023-02-03T06:29:04;5.87;;;4.33;;
14001;SDS011;7076;51.280;12.584;2023-02-03T06:34:07;4.50;;;3.70;;
14001;SDS011;7076;51.280;12.584;2023-02-03T06:39:11;5.38;;;3.85;;
14001;SDS011;7076;51.280;12.584;2023-02-03T06:44:14;5.13;;;3.70;;
14001;SDS011;7076;51.280;12.584;2023-02-03T06:49:17;4.13;;;3.43;;
14001;SDS011;7076;51.280;12.584;2023-02-03T06:54:21;3.77;;;3.37;;
14001;SDS011;7076;51.280;12.584;2023-02-03T06:59:24;6.20;;;3.23;;
14001;SDS011;7076;51.280;12.584;2023-02-03T07:04:27;4.00;;;3.20;;
14001;SDS011;7076;51.280;12.584;2023-02-03T07:09:31;3.33;;;2.70;;
14001;SDS011;7076;51.280;12.584;2023-02-03T07:14:34;3.63;;;2.40;;
14001;SDS011;7076;51.280;12.584;2023-02-03T07:19:39;4.55;;;2.67;;
14001;SDS011;7076;51.280;12.584;2023-02-03T07:24:46;3.58;;;2.70;;
14001;SDS011;7076;51.280;12.584;2023-02-03T07:29:49;3.33;;;2.58;;
14001;SDS011;7076;51.280;12.584;2023-02-03T07:34:52;3.25;;;2.95;;
14001;SDS011;7076;51.280;12.584;2023-02-03T07:39:56;3.53;;;2.78;;
14001;SDS011;7076;51.280;12.584;2023-02-03T07:44:59;3.70;;;2.90;;
14001;SDS011;7076;51.280;12.584;2023-02-03T07:50:02;3.90;;;3.03;;
14001;SDS011;7076;51.280;12.584;2023-02-03T07:55:06;5.80;;;2.97;;
14001;SDS011;7076;51.280;12.584;2023-02-03T08:00:10;3.22;;;2.90;;
14001;SDS011;7076;51.280;12.584;2023-02-03T08:05:15;6.95;;;3.33;;
14001;SDS011;7076;51.280;12.584;2023-02-03T08:10:20;3.78;;;3.00;;
14001;SDS011;7076;51.280;12.584;2023-02-03T08:15:23;4.88;;;3.60;;
14001;SDS011;7076;51.280;12.584;2023-02-03T08:20:26;4.03;;;2.65;;
14001;SDS011;7076;51.280;12.584;2023-02-03T08:25:30;4.07;;;2.55;;
14001;SDS011;7076;51.280;12.584;2023-02-03T08:30:33;3.97;;;2.83;;
14001;SDS011;7076;51.280;12.584;2023-02-03T08:35:36;4.53;;;2.33;;
14001;SDS011;7076;51.280;12.584;2023-02-03T08:40:41;3.67;;;2.45;;
14001;SDS011;7076;51.280;12.584;2023-02-03T08:45:44;2.17;;;1.98;;
14001;SDS011;7076;51.280;12.584;2023-02-03T08:50:47;2.88;;;1.92;;
14001;SDS011;7076;51.280;12.584;2023-02-03T08:55:54;2.78;;;2.17;;
14001;SDS011;7076;51.280;12.584;2023-02-03T09:01:04;3.60;;;2.33;;
14001;SDS011;7076;51.280;12.584;2023-02-03T09:06:07;3.35;;;3.03;;
14001;SDS011;7076;51.280;12.584;2023-02-03T09:11:14;3.05;;;2.25;;
14001;SDS011;7076;51.280;12.584;2023-02-03T09:16:18;2.28;;;1.88;;
14001;SDS011;7076;51.280;12.584;2023-02-03T09:21:23;1.85;;;1.70;;
14001;SDS011;7076;51.280;12.584;2023-02-03T09:26:45;2.85;;;1.75;;
14001;SDS011;7076;51.280;12.584;2023-02-03T09:31:48;2.13;;;1.80;;
14001;SDS011;7076;51.280;12.584;2023-02-03T09:36:53;2.40;;;1.77;;
14001;SDS011;7076;51.280;12.584;2023-02-03T09:47:34;2.53;;;2.00;;
14001;SDS011;7076;51.280;12.584;2023-02-03T09:52:39;3.53;;;1.60;;
14001;SDS011;7076;51.280;12.584;2023-02-03T09:57:46;2.65;;;1.60;;
14001;SDS011;7076;51.280;12.584;2023-02-03T10:02:54;2.70;;;1.35;;
14001;SDS011;7076;51.280;12.584;2023-02-03T10:08:01;3.22;;;1.60;;
14001;SDS011;7076;51.280;12.584;2023-02-03T10:13:12;1.73;;;1.35;;
14001;SDS011;7076;51.280;12.584;2023-02-03T10:18:21;2.28;;;1.50;;
14001;SDS011;7076;51.280;12.584;2023-02-03T10:23:28;3.90;;;1.85;;
14001;SDS011;7076;51.280;12.584;2023-02-03T10:28:36;2.42;;;1.23;;
14001;SDS011;7076;51.280;12.584;2023-02-03T10:33:41;2.78;;;1.50;;
14001;SDS011;7076;51.280;12.584;2023-02-03T10:38:45;3.28;;;1.42;;
14001;SDS011;7076;51.280;12.584;2023-02-03T10:43:55;2.13;;;1.02;;
14001;SDS011;7076;51.280;12.584;2023-02-03T10:48:59;1.48;;;1.25;;
14001;SDS011;7076;51.280;12.584;2023-02-03T10:54:03;2.42;;;1.27;;
14001;SDS011;7076;51.280;12.584;2023-02-03T10:59:09;3.25;;;1.30;;
14001;SDS011;7076;51.280;12.584;2023-02-03T11:04:30;2.47;;;1.10;;
14001;SDS011;7076;51.280;12.584;2023-02-03T11:09:34;3.70;;;1.52;;
14001;SDS011;7076;51.280;12.584;2023-02-03T11:14:40;3.08;;;1.40;;
14001;SDS011;7076;51.280;12.584;2023-02-03T11:19:45;1.50;;;1.40;;
14001;SDS011;7076;51.280;12.584;2023-02-03T11:24:49;2.20;;;1.67;;
14001;SDS011;7076;51.280;12.584;2023-02-03T11:29:54;2.00;;;1.80;;
14001;SDS011;7076;51.280;12.584;2023-02-03T11:35:13;2.38;;;2.15;;
14001;SDS011;7076;51.280;12.584;2023-02-03T11:40:22;2.90;;;1.95;;
14001;SDS011;7076;51.280;12.584;2023-02-03T11:45:29;2.65;;;2.28;;
14001;SDS011;7076;51.280;12.584;2023-02-03T11:50:32;3.00;;;2.08;;
14001;SDS011;7076;51.280;12.584;2023-02-03T11:55:42;3.03;;;1.90;;
14001;SDS011;7076;51.280;12.584;2023-02-03T12:00:55;2.78;;;1.75;;
14001;SDS011;7076;51.280;12.584;2023-02-03T12:06:10;2.58;;;1.70;;
14001;SDS011;7076;51.280;12.584;2023-02-03T12:11:19;3.97;;;1.80;;
14001;SDS011;7076;51.280;12.584;2023-02-03T12:16:33;2.80;;;1.77;;
14001;SDS011;7076;51.280;12.584;2023-02-03T12:21:49;2.97;;;1.70;;
14001;SDS011;7076;51.280;12.584;2023-02-03T12:26:56;1.60;;;1.48;;
14001;SDS011;7076;51.280;12.584;2023-02-03T12:32:08;1.83;;;1.45;;
14001;SDS011;7076;51.280;12.584;2023-02-03T12:37:18;1.02;;;1.02;;
14001;SDS011;7076;51.280;12.584;2023-02-03T12:42:25;1.58;;;1.13;;
14001;SDS011;7076;51.280;12.584;2023-02-03T12:47:33;1.55;;;1.08;;
14001;SDS011;7076;51.280;12.584;2023-02-03T12:52:38;1.48;;;1.17;;
14001;SDS011;7076;51.280;12.584;2023-02-03T12:57:43;1.58;;;1.10;;
14001;SDS011;7076;51.280;12.584;2023-02-03T13:02:53;1.92;;;1.42;;
14001;SDS011;7076;51.280;12.584;2023-02-03T13:08:05;4.40;;;1.02;;
14001;SDS011;7076;51.280;12.584;2023-02-03T13:13:15;1.55;;;0.70;;
14001;SDS011;7076;51.280;12.584;2023-02-03T13:18:25;3.17;;;0.90;;
14001;SDS011;7076;51.280;12.584;2023-02-03T13:23:30;5.35;;;1.15;;
14001;SDS011;7076;51.280;12.584;2023-02-03T13:28:38;5.90;;;1.10;;
14001;SDS011;7076;51.280;12.584;2023-02-03T13:33:52;4.68;;;0.82;;
14001;SDS011;7076;51.280;12.584;2023-02-03T13:44:35;7.00;;;1.15;;
14001;SDS011;7076;51.280;12.584;2023-02-03T13:49:43;5.78;;;1.10;;
14001;SDS011;7076;51.280;12.584;2023-02-03T13:54:48;8.50;;;1.92;;
14001;SDS011;7076;51.280;12.584;2023-02-03T13:59:51;9.13;;;2.40;;
14001;SDS011;7076;51.280;12.584;2023-02-03T14:04:55;4.07;;;1.27;;
14001;SDS011;7076;51.280;12.584;2023-02-03T14:15:22;7.83;;;1.80;;
14001;SDS011;7076;51.280;12.584;2023-02-03T14:20:46;11.40;;;1.70;;
14001;SDS011;7076;51.280;12.584;2023-02-03T14:25:52;3.93;;;1.10;;
14001;SDS011;7076;51.280;12.584;2023-02-03T14:36:31;5.67;;;1.60;;
14001;SDS011;7076;51.280;12.584;2023-02-03T14:41:46;4.50;;;1.20;;
14001;SDS011;7076;51.280;12.584;2023-02-03T14:46:57;7.60;;;1.47;;
14001;SDS011;7076;51.280;12.584;2023-02-03T14:52:12;7.33;;;1.67;;
14001;SDS011;7076;51.280;12.584;2023-02-03T14:57:24;7.47;;;1.57;;
14001;SDS011;7076;51.280;12.584;2023-02-03T15:02:33;4.83;;;1.67;;
14001;SDS011;7076;51.280;12.584;2023-02-03T15:07:38;9.33;;;2.47;;
14001;SDS011;7076;51.280;12.584;2023-02-03T15:12:46;4.90;;;1.33;;
14001;SDS011;7076;51.280;12.584;2023-02-03T15:17:50;12.03;;;1.90;;
14001;SDS011;7076;51.280;12.584;2023-02-03T15:22:55;5.53;;;1.30;;
14001;SDS011;7076;51.280;12.584;2023-02-03T15:28:10;9.87;;;2.20;;
14001;SDS011;7076;51.280;12.584;2023-02-03T15:33:16;8.37;;;1.97;;
14001;SDS011;7076;51.280;12.584;2023-02-03T15:38:25;8.90;;;1.67;;
14001;SDS011;7076;51.280;12.584;2023-02-03T15:43:30;8.10;;;2.00;;
14001;SDS011;7076;51.280;12.584;2023-02-03T15:48:34;7.27;;;1.93;;
14001;SDS011;7076;51.280;12.584;2023-02-03T15:53:44;9.47;;;2.30;;
14001;SDS011;7076;51.280;12.584;2023-02-03T15:58:50;9.77;;;1.90;;
14001;SDS011;7076;51.280;12.584;2023-02-03T16:03:53;6.43;;;1.83;;
14001;SDS011;7076;51.280;12.584;2023-02-03T16:08:58;7.47;;;1.90;;
14001;SDS011;7076;51.280;12.584;2023-02-03T16:14:02;13.27;;;2.75;;
14001;SDS011;7076;51.280;12.584;2023-02-03T16:19:11;11.00;;;2.05;;
14001;SDS011;7076;51.280;12.584;2023-02-03T16:24:28;9.95;;;1.95;;
14001;SDS011;7076;51.280;12.584;2023-02-03T16:29:37;9.53;;;2.13;;
14001;SDS011;7076;51.280;12.584;2023-02-03T16:34:58;9.63;;;2.10;;
14001;SDS011;7076;51.280;12.584;2023-02-03T16:40:20;10.43;;;1.90;;
14001;SDS011;7076;51.280;12.584;2023-02-03T16:45:42;11.75;;;1.95;;
14001;SDS011;7076;51.280;12.584;2023-02-03T16:51:03;10.85;;;2.20;;
14001;SDS011;7076;51.280;12.584;2023-02-03T16:56:10;11.30;;;1.90;;
14001;SDS011;7076;51.280;12.584;2023-02-03T17:01:13;6.60;;;2.20;;
14001;SDS011;7076;51.280;12.584;2023-02-03T17:06:16;8.83;;;1.93;;
14001;SDS011;7076;51.280;12.584;2023-02-03T17:11:21;10.23;;;1.83;;
14001;SDS011;7076;51.280;12.584;2023-02-03T17:16:25;9.30;;;2.23;;
14001;SDS011;7076;51.280;12.584;2023-02-03T17:21:28;8.75;;;1.38;;
14001;SDS011;7076;51.280;12.584;2023-02-03T17:26:33;12.93;;;2.13;;
14001;SDS011;7076;51.280;12.584;2023-02-03T17:31:35;10.52;;;2.35;;
14001;SDS011;7076;51.280;12.584;2023-02-03T17:36:38;8.63;;;1.87;;
14001;SDS011;7076;51.280;12.584;2023-02-03T17:41:42;11.83;;;2.20;;
14001;SDS011;7076;51.280;12.584;2023-02-03T17:51:27;9.10;;;1.90;;
14001;SDS011;7076;51.280;12.584;2023-02-03T17:56:47;9.75;;;2.03;;
14001;SDS011;7076;51.280;12.584;2023-02-03T18:01:51;11.20;;;2.20;;
14001;SDS011;7076;51.280;12.584;2023-02-03T18:06:55;11.85;;;1.98;;
14001;SDS011;7076;51.280;12.584;2023-02-03T18:11:58;7.60;;;1.65;;
14001;SDS011;7076;51.280;12.584;2023-02-03T18:17:01;10.90;;;2.05;;
14001;SDS011;7076;51.280;12.584;2023-02-03T18:22:05;9.97;;;1.63;;
14001;SDS011;7076;51.280;12.584;2023-02-03T18:27:08;8.23;;;2.17;;
14001;SDS011;7076;51.280;12.584;2023-02-03T18:32:16;7.60;;;2.00;;
14001;SDS011;7076;51.280;12.584;2023-02-03T18:37:21;8.00;;;1.80;;
14001;SDS011;7076;51.280;12.584;2023-02-03T18:42:24;11.77;;;2.07;;
14001;SDS011;7076;51.280;12.584;2023-02-03T18:47:27;9.90;;;1.73;;
14001;SDS011;7076;51.280;12.584;2023-02-03T18:52:31;9.13;;;1.73;;
14001;SDS011;7076;51.280;12.584;2023-02-03T18:57:35;10.13;;;2.20;;
14001;SDS011;7076;51.280;12.584;2023-02-03T19:02:38;7.15;;;1.50;;
14001;SDS011;7076;51.280;12.584;2023-02-03T19:07:42;10.57;;;2.03;;
14001;SDS011;7076;51.280;12.584;2023-02-03T19:12:45;9.67;;;2.20;;
14001;SDS011;7076;51.280;12.584;2023-02-03T19:17:48;11.07;;;2.33;;
14001;SDS011;7076;51.280;12.584;2023-02-03T19:22:52;13.07;;;2.70;;
14001;SDS011;7076;51.280;12.584;2023-02-03T19:27:57;7.53;;;1.97;;
14001;SDS011;7076;51.280;12.584;2023-02-03T19:32:59;16.37;;;2.20;;
14001;SDS011;7076;51.280;12.584;2023-02-03T19:38:04;12.47;;;2.03;;
14001;SDS011;7076;51.280;12.584;2023-02-03T19:43:07;10.30;;;2.03;;
14001;SDS011;7076;51.280;12.584;2023-02-03T19:48:10;13.50;;;2.53;;
14001;SDS011;7076;51.280;12.584;2023-02-03T19:53:15;14.80;;;2.90;;
14001;SDS011;7076;51.280;12.584;2023-02-03T19:58:18;11.03;;;1.90;;
14001;SDS011;7076;51.280;12.584;2023-02-03T20:03:21;15.97;;;2.83;;
14001;SDS011;7076;51.280;12.584;2023-02-03T20:08:26;8.38;;;2.17;;
14001;SDS011;7076;51.280;12.584;2023-02-03T20:13:29;14.85;;;2.38;;
14001;SDS011;7076;51.280;12.584;2023-02-03T20:18:32;9.88;;;2.30;;
14001;SDS011;7076;51.280;12.584;2023-02-03T20:23:36;9.63;;;2.13;;
14001;SDS011;7076;51.280;12.584;2023-02-03T20:28:39;10.18;;;2.05;;
14001;SDS011;7076;51.280;12.584;2023-02-03T20:33:42;10.53;;;1.90;;
14001;SDS011;7076;51.280;12.584;2023-02-03T20:38:46;9.23;;;2.30;;
14001;SDS011;7076;51.280;12.584;2023-02-03T20:43:49;10.07;;;2.10;;
14001;SDS011;7076;51.280;12.584;2023-02-03T20:48:52;11.88;;;2.33;;
14001;SDS011;7076;51.280;12.584;2023-02-03T20:53:57;10.40;;;1.83;;
14001;SDS011;7076;51.280;12.584;2023-02-03T20:59:00;9.77;;;1.95;;
14001;SDS011;7076;51.280;12.584;2023-02-03T21:04:03;11.63;;;2.25;;
14001;SDS011;7076;51.280;12.584;2023-02-03T21:09:27;11.82;;;2.70;;
14001;SDS011;7076;51.280;12.584;2023-02-03T21:14:33;12.90;;;2.03;;
14001;SDS011;7076;51.280;12.584;2023-02-03T21:19:37;11.10;;;2.17;;
14001;SDS011;7076;51.280;12.584;2023-02-03T21:24:43;6.17;;;1.67;;
14001;SDS011;7076;51.280;12.584;2023-02-03T21:29:48;9.97;;;2.17;;
14001;SDS011;7076;51.280;12.584;2023-02-03T21:34:55;6.00;;;1.80;;
14001;SDS011;7076;51.280;12.584;2023-02-03T21:40:00;12.43;;;2.73;;
14001;SDS011;7076;51.280;12.584;2023-02-03T21:45:06;6.30;;;1.80;;
14001;SDS011;7076;51.280;12.584;2023-02-03T21:50:27;13.50;;;2.53;;
14001;SDS011;7076;51.280;12.584;2023-02-03T21:55:34;9.77;;;2.50;;
14001;SDS011;7076;51.280;12.584;2023-02-03T22:00:38;14.97;;;2.20;;
14001;SDS011;7076;51.280;12.584;2023-02-03T22:05:43;8.68;;;2.42;;
14001;SDS011;7076;51.280;12.584;2023-02-03T22:10:47;10.60;;;1.73;;
14001;SDS011;7076;51.280;12.584;2023-02-03T22:15:51;8.63;;;1.80;;
14001;SDS011;7076;51.280;12.584;2023-02-03T22:20:54;9.23;;;2.30;;
14001;SDS011;7076;51.280;12.584;2023-02-03T22:25:58;10.00;;;1.90;;
14001;SDS011;7076;51.280;12.584;2023-02-03T22:31:01;11.07;;;1.80;;
14001;SDS011;7076;51.280;12.584;2023-02-03T22:36:05;7.57;;;1.70;;
14001;SDS011;7076;51.280;12.584;2023-02-03T22:41:10;8.88;;;1.52;;
14001;SDS011;7076;51.280;12.584;2023-02-03T22:46:17;9.27;;;1.57;;
14001;SDS011;7076;51.280;12.584;2023-02-03T22:51:20;9.23;;;2.03;;
14001;SDS011;7076;51.280;12.584;2023-02-03T22:56:24;9.27;;;1.95;;
14001;SDS011;7076;51.280;12.584;2023-02-03T23:01:27;5.27;;;1.67;;
14001;SDS011;7076;51.280;12.584;2023-02-03T23:06:30;12.07;;;2.23;;
14001;SDS011;7076;51.280;12.584;2023-02-03T23:11:34;5.37;;;1.47;;
14001;SDS011;7076;51.280;12.584;2023-02-03T23:16:37;8.63;;;1.90;;
14001;SDS011;7076;51.280;12.584;2023-02-03T23:21:40;5.93;;;1.83;;
14001;SDS011;7076;51.280;12.584;2023-02-03T23:26:44;9.97;;;1.90;;
14001;SDS011;7076;51.280;12.584;2023-02-03T23:31:46;9.03;;;1.67;;
14001;SDS011;7076;51.280;12.584;2023-02-03T23:36:49;9.70;;;1.90;;
14001;SDS011;7076;51.280;12.584;2023-02-03T23:41:53;6.73;;;1.00;;
14001;SDS011;7076;51.280;12.584;2023-02-03T23:46:56;4.23;;;1.17;;
14001;SDS011;7076;51.280;12.584;2023-02-03T23:51:59;6.17;;;1.30;;
14001;SDS011;7076;51.280;12.584;2023-02-03T23:57:03;2.50;;;0.70;;
